createdAt,value
2019-04-11T00:00:41.807Z,3.40
2019-04-11T00:01:48.013Z,3.80
2019-04-11T00:02:42.508Z,3.50
2019-04-11T00:03:41.794Z,3.60
2019-04-11T00:04:42.035Z,3.70
2019-04-11T00:05:41.482Z,3.80
2019-04-11T00:06:41.490Z,3.90
2019-04-11T00:07:42.546Z,3.90
2019-04-11T00:08:41.937Z,3.40
2019-04-11T00:09:41.434Z,3.20
2019-04-11T00:10:41.693Z,3.90
2019-04-11T00:11:41.966Z,4.10
2019-04-11T00:12:41.399Z,3.90
2019-04-11T00:13:41.383Z,4.00
2019-04-11T00:14:42.158Z,4.00
2019-04-11T00:15:42.453Z,3.90
2019-04-11T00:16:41.567Z,4.00
2019-04-11T00:17:41.824Z,4.10
2019-04-11T00:18:41.334Z,4.10
2019-04-11T00:19:41.316Z,3.60
2019-04-11T00:20:42.413Z,4.00
2019-04-11T00:21:41.393Z,3.50
2019-04-11T00:22:41.563Z,4.30
2019-04-11T00:23:41.273Z,4.00
2019-04-11T00:24:41.264Z,4.00
2019-04-11T00:25:42.058Z,4.10
2019-04-11T00:26:41.329Z,4.10
2019-04-11T00:27:41.357Z,4.00
2019-04-11T00:28:41.679Z,4.00
2019-04-11T00:29:41.206Z,3.90
2019-04-11T00:30:42.183Z,3.80
2019-04-11T00:31:41.200Z,4.10
2019-04-11T00:32:41.475Z,4.10
2019-04-11T00:33:42.404Z,3.70
2019-04-11T00:34:41.152Z,3.50
2019-04-11T00:35:41.949Z,4.20
2019-04-11T00:36:41.135Z,3.80
2019-04-11T00:37:41.288Z,3.60
2019-04-11T00:38:42.266Z,4.00
2019-04-11T00:39:41.107Z,3.90
2019-04-11T00:40:41.652Z,4.00
2019-04-11T00:41:41.895Z,3.90
2019-04-11T00:42:41.118Z,3.90
2019-04-11T00:43:43.446Z,3.90
2019-04-11T00:44:41.195Z,3.60
2019-04-11T00:45:41.032Z,3.80
2019-04-11T00:46:41.029Z,4.00
2019-04-11T00:47:41.544Z,4.00
2019-04-11T00:48:41.931Z,3.90
2019-04-11T00:49:42.949Z,3.90
2019-04-11T00:50:40.982Z,3.90
2019-04-11T00:51:42.247Z,4.20
2019-04-11T00:52:41.295Z,3.80
2019-04-11T00:53:40.949Z,4.00
2019-04-11T00:54:40.941Z,4.00
2019-04-11T00:55:41.864Z,3.70
2019-04-11T00:56:42.187Z,3.50
2019-04-11T00:57:41.232Z,4.00
2019-04-11T00:58:41.530Z,3.70
2019-04-11T00:59:40.878Z,3.90
2019-04-11T01:00:40.881Z,3.80
2019-04-11T01:01:40.971Z,4.00
2019-04-11T01:02:42.267Z,3.70
2019-04-11T01:03:40.835Z,3.40
2019-04-11T01:04:41.235Z,3.90
2019-04-11T01:05:41.536Z,4.40
2019-04-11T01:06:40.810Z,3.80
2019-04-11T01:07:40.966Z,4.20
2019-04-11T01:08:41.882Z,4.00
2019-04-11T01:09:40.796Z,3.90
2019-04-11T01:10:41.520Z,3.60
2019-04-11T01:11:40.749Z,4.20
2019-04-11T01:12:40.881Z,3.80
2019-04-11T01:13:48.610Z,3.80
2019-04-11T01:14:42.688Z,4.20
2019-04-11T01:15:40.882Z,3.60
2019-04-11T01:16:41.012Z,3.70
2019-04-11T01:17:41.339Z,3.70
2019-04-11T01:18:40.673Z,3.90
2019-04-11T01:19:40.798Z,3.80
2019-04-11T01:20:41.816Z,3.70
2019-04-11T01:21:40.639Z,3.90
2019-04-11T01:22:40.669Z,4.20
2019-04-11T01:23:40.702Z,3.60
2019-04-11T01:24:41.950Z,4.30
2019-04-11T01:25:41.036Z,4.30
2019-04-11T01:26:41.353Z,3.80
2019-04-11T01:27:41.186Z,4.00
2019-04-11T01:28:40.777Z,4.20
2019-04-11T01:29:41.813Z,4.00
2019-04-11T01:30:40.922Z,4.20
2019-04-11T01:31:40.548Z,3.70
2019-04-11T01:32:40.520Z,4.00
2019-04-11T01:33:42.117Z,4.00
2019-04-11T01:34:40.555Z,4.00
2019-04-11T01:35:41.604Z,3.80
2019-04-11T01:36:40.485Z,4.10
2019-04-11T01:37:40.476Z,3.80
2019-04-11T01:38:40.886Z,3.40
2019-04-11T01:39:41.217Z,3.50
2019-04-11T01:40:40.433Z,3.50
2019-04-11T01:41:40.532Z,4.10
2019-04-11T01:42:41.665Z,3.70
2019-04-11T01:43:52.075Z,3.90
2019-04-11T01:44:41.499Z,3.50
2019-04-11T01:45:41.328Z,4.40
2019-04-11T01:46:40.366Z,3.70
2019-04-11T01:47:40.355Z,3.70
2019-04-11T01:48:40.355Z,3.70
2019-04-11T01:49:40.659Z,3.60
2019-04-11T01:50:41.182Z,3.70
2019-04-11T01:51:40.317Z,4.10
2019-04-11T01:52:40.351Z,4.00
2019-04-11T01:53:41.015Z,3.70
2019-04-11T01:54:40.283Z,3.60
2019-04-11T01:55:40.837Z,3.90
2019-04-11T01:56:41.150Z,3.80
2019-04-11T01:57:40.340Z,3.70
2019-04-11T01:58:40.638Z,4.20
2019-04-11T01:59:40.224Z,4.00
2019-04-11T02:00:40.220Z,3.80
2019-04-11T02:01:41.066Z,3.60
2019-04-11T02:02:40.203Z,3.40
2019-04-11T02:03:41.363Z,3.70
2019-04-11T02:04:40.467Z,4.20
2019-04-11T02:05:41.130Z,4.30
2019-04-11T02:06:40.385Z,3.30
2019-04-11T02:07:40.133Z,3.80
2019-04-11T02:08:40.127Z,3.70
2019-04-11T02:09:40.180Z,3.90
2019-04-11T02:10:41.129Z,3.90
2019-04-11T02:11:40.451Z,4.00
2019-04-11T02:12:40.081Z,3.90
2019-04-11T02:13:40.069Z,3.50
2019-04-11T02:14:40.067Z,3.80
2019-04-11T02:15:40.820Z,3.80
2019-04-11T02:16:41.131Z,3.90
2019-04-11T02:17:41.115Z,3.50
2019-04-11T02:18:40.015Z,3.50
2019-04-11T02:19:40.521Z,3.50
2019-04-11T02:20:40.948Z,3.50
2019-04-11T02:21:42.046Z,3.70
2019-04-11T02:22:40.395Z,3.60
2019-04-11T02:23:39.965Z,3.60
2019-04-11T02:24:40.007Z,3.80
2019-04-11T02:25:41.258Z,3.40
2019-04-11T02:26:41.025Z,3.90
2019-04-11T02:27:40.156Z,3.90
2019-04-11T02:28:40.981Z,3.70
2019-04-11T02:29:39.959Z,3.50
2019-04-11T02:30:41.923Z,3.70
2019-04-11T02:31:39.881Z,3.70
2019-04-11T02:32:40.417Z,3.70
2019-04-11T02:33:41.369Z,3.70
2019-04-11T02:34:40.292Z,3.60
2019-04-11T02:35:42.208Z,3.60
2019-04-11T02:36:40.509Z,3.30
2019-04-11T02:37:40.000Z,3.60
2019-04-11T02:38:41.258Z,3.60
2019-04-11T02:39:40.955Z,3.70
2019-04-11T02:40:41.098Z,3.50
2019-04-11T02:41:40.073Z,3.20
2019-04-11T02:42:41.061Z,3.50
2019-04-11T02:43:41.804Z,3.80
2019-04-11T02:44:56.058Z,3.90
2019-04-11T02:45:54.531Z,3.80
2019-04-11T02:46:44.891Z,3.30
2019-04-11T02:47:43.938Z,3.70
2019-04-11T02:48:42.487Z,3.50
2019-04-11T02:49:41.138Z,3.40
2019-04-11T02:50:41.480Z,3.30
2019-04-11T02:51:39.655Z,3.50
2019-04-11T02:52:40.145Z,3.70
2019-04-11T02:53:40.933Z,3.60
2019-04-11T02:54:40.959Z,3.20
2019-04-11T02:55:41.439Z,3.30
2019-04-11T02:56:40.657Z,3.30
2019-04-11T02:57:40.820Z,3.50
2019-04-11T02:58:40.086Z,3.20
2019-04-11T02:59:40.968Z,3.20
2019-04-11T03:00:40.289Z,3.20
2019-04-11T03:01:39.973Z,3.10
2019-04-11T03:02:41.649Z,3.30
2019-04-11T03:03:41.702Z,3.70
2019-04-11T03:04:41.521Z,3.00
2019-04-11T03:05:39.662Z,3.30
2019-04-11T03:06:39.882Z,3.00
2019-04-11T03:07:40.106Z,3.50
2019-04-11T03:08:41.017Z,3.20
2019-04-11T03:09:39.516Z,2.70
2019-04-11T03:10:40.918Z,3.00
2019-04-11T03:11:40.857Z,3.30
2019-04-11T03:12:40.517Z,3.10
2019-04-11T03:13:39.579Z,3.10
2019-04-11T03:15:01.047Z,3.20
2019-04-11T03:15:56.954Z,3.10
2019-04-11T03:16:51.882Z,3.60
2019-04-11T03:17:43.313Z,3.30
2019-04-11T03:19:02.414Z,3.30
2019-04-11T03:19:54.731Z,3.10
2019-04-11T03:20:47.803Z,3.20
2019-04-11T03:21:43.677Z,3.10
2019-04-11T03:22:40.527Z,2.70
2019-04-11T03:23:40.133Z,2.80
2019-04-11T03:24:40.624Z,2.90
2019-04-11T03:25:40.585Z,2.80
2019-04-11T03:26:41.135Z,3.10
2019-04-11T03:27:40.824Z,3.10
2019-04-11T03:28:42.473Z,3.10
2019-04-11T03:29:40.809Z,3.20
2019-04-11T03:30:59.181Z,3.30
2019-04-11T03:32:24.690Z,2.70
2019-04-11T03:34:24.981Z,2.80
2019-04-11T03:37:58.703Z,3.00
2019-04-11T03:39:00.228Z,3.00
2019-04-11T03:39:59.606Z,2.40
2019-04-11T03:40:57.686Z,2.70
2019-04-11T03:41:57.665Z,2.70
2019-04-11T03:42:57.050Z,3.00
2019-04-11T03:43:51.046Z,2.90
2019-04-11T03:44:46.292Z,2.90
2019-04-11T03:45:58.979Z,3.10
2019-04-11T03:46:52.776Z,3.00
2019-04-11T03:47:59.477Z,3.00
2019-04-11T03:48:50.747Z,2.70
2019-04-11T03:49:49.089Z,3.00
2019-04-11T03:50:40.281Z,3.00
2019-04-11T03:51:40.925Z,3.00
2019-04-11T03:52:38.983Z,3.00
2019-04-11T03:53:38.973Z,2.80
2019-04-11T03:54:41.013Z,3.10
2019-04-11T03:55:39.136Z,3.30
2019-04-11T03:56:39.076Z,3.20
2019-04-11T03:57:39.470Z,3.60
2019-04-11T03:58:39.865Z,3.10
2019-04-11T03:59:40.563Z,3.40
2019-04-11T04:00:43.208Z,3.20
2019-04-11T04:01:39.976Z,3.10
2019-04-11T04:02:39.167Z,3.20
2019-04-11T04:03:39.351Z,2.80
2019-04-11T04:04:39.342Z,3.20
2019-04-11T04:05:39.721Z,2.90
2019-04-11T04:06:39.448Z,3.60
2019-04-11T04:07:40.291Z,3.20
2019-04-11T04:08:39.269Z,3.60
2019-04-11T04:09:39.745Z,3.30
2019-04-11T04:10:39.525Z,3.40
2019-04-11T04:11:40.736Z,3.50
2019-04-11T04:12:40.254Z,3.70
2019-04-11T04:13:39.176Z,3.50
2019-04-11T04:14:39.142Z,3.00
2019-04-11T04:15:51.625Z,3.30
2019-04-11T04:16:45.633Z,3.40
2019-04-11T04:17:41.189Z,3.30
2019-04-11T04:18:40.197Z,3.20
2019-04-11T04:19:40.137Z,3.70
2019-04-11T04:20:39.422Z,3.30
2019-04-11T04:21:38.910Z,6.30
2019-04-11T04:22:39.712Z,3.60
2019-04-11T04:23:38.640Z,4.10
2019-04-11T04:24:40.525Z,4.50
2019-04-11T04:25:39.226Z,3.20
2019-04-11T04:26:39.098Z,3.50
2019-04-11T04:27:38.885Z,3.50
2019-04-11T04:28:40.675Z,3.60
2019-04-11T04:29:38.742Z,3.30
2019-04-11T04:30:40.554Z,3.60
2019-04-11T04:31:39.069Z,3.30
2019-04-11T04:32:38.777Z,3.30
2019-04-11T04:33:40.046Z,3.80
2019-04-11T04:34:40.222Z,3.70
2019-04-11T04:35:40.142Z,3.80
2019-04-11T04:36:40.189Z,3.30
2019-04-11T04:37:38.859Z,3.20
2019-04-11T04:38:39.562Z,3.70
2019-04-11T04:39:39.657Z,3.20
2019-04-11T04:40:51.033Z,3.70
2019-04-11T04:41:47.875Z,3.40
2019-04-11T04:42:46.089Z,3.50
2019-04-11T04:43:41.146Z,3.40
2019-04-11T04:44:40.217Z,3.20
2019-04-11T04:45:58.147Z,3.10
2019-04-11T04:46:57.147Z,3.30
2019-04-11T04:47:47.087Z,3.70
2019-04-11T04:48:41.028Z,3.80
2019-04-11T04:49:39.275Z,3.50
2019-04-11T04:50:39.327Z,3.30
2019-04-11T04:51:39.126Z,3.80
2019-04-11T04:52:38.439Z,3.10
2019-04-11T04:53:39.063Z,3.70
2019-04-11T04:54:38.710Z,3.70
2019-04-11T04:55:38.800Z,3.40
2019-04-11T04:56:39.790Z,3.30
2019-04-11T04:57:38.274Z,3.70
2019-04-11T04:58:39.833Z,3.50
2019-04-11T04:59:40.605Z,4.00
2019-04-11T05:00:39.709Z,3.70
2019-04-11T05:01:39.282Z,3.30
2019-04-11T05:02:39.791Z,3.70
2019-04-11T05:03:38.210Z,3.90
2019-04-11T05:04:38.770Z,9.30
2019-04-11T05:05:38.829Z,4.20
2019-04-11T05:06:38.729Z,3.80
2019-04-11T05:07:40.428Z,3.90
2019-04-11T05:08:39.026Z,3.70
2019-04-11T05:09:38.412Z,3.50
2019-04-11T05:10:38.255Z,3.70
2019-04-11T05:11:38.339Z,3.60
2019-04-11T05:12:38.841Z,4.00
2019-04-11T05:13:38.789Z,3.80
2019-04-11T05:14:39.347Z,3.90
2019-04-11T05:15:38.670Z,4.00
2019-04-11T05:16:38.059Z,4.10
2019-04-11T05:17:38.701Z,4.00
2019-04-11T05:18:38.039Z,3.70
2019-04-11T05:19:38.355Z,3.70
2019-04-11T05:20:38.605Z,3.50
2019-04-11T05:21:38.203Z,3.80
2019-04-11T05:22:38.060Z,3.20
2019-04-11T05:23:37.984Z,3.30
2019-04-11T05:24:38.910Z,3.40
2019-04-11T05:25:39.035Z,3.30
2019-04-11T05:26:37.959Z,3.70
2019-04-11T05:27:38.028Z,3.60
2019-04-11T05:28:37.929Z,3.80
2019-04-11T05:29:37.919Z,3.70
2019-04-11T05:30:37.912Z,3.50
2019-04-11T05:31:38.694Z,3.70
2019-04-11T05:32:37.889Z,3.90
2019-04-11T05:33:39.097Z,3.80
2019-04-11T05:34:37.866Z,4.40
2019-04-11T05:35:37.852Z,3.80
2019-04-11T05:36:38.715Z,3.60
2019-04-11T05:37:37.924Z,4.00
2019-04-11T05:38:38.019Z,3.80
2019-04-11T05:39:38.124Z,3.90
2019-04-11T05:40:37.814Z,3.70
2019-04-11T05:41:37.785Z,3.80
2019-04-11T05:42:37.778Z,3.80
2019-04-11T05:43:39.784Z,3.60
2019-04-11T05:44:40.226Z,4.00
2019-04-11T05:45:38.104Z,3.70
2019-04-11T05:46:49.109Z,3.90
2019-04-11T05:47:39.325Z,4.20
2019-04-11T05:48:38.938Z,3.70
2019-04-11T05:49:40.834Z,3.90
2019-04-11T05:50:37.687Z,3.80
2019-04-11T05:51:41.641Z,4.10
2019-04-11T05:52:39.892Z,4.00
2019-04-11T05:53:38.678Z,4.20
2019-04-11T05:54:41.209Z,3.80
2019-04-11T05:55:41.433Z,3.90
2019-04-11T05:56:37.653Z,3.80
2019-04-11T05:57:38.866Z,4.20
2019-04-11T05:58:42.177Z,3.90
2019-04-11T05:59:39.065Z,3.90
2019-04-11T06:00:38.051Z,3.70
2019-04-11T06:01:38.332Z,4.40
2019-04-11T06:02:37.557Z,4.70
2019-04-11T06:03:39.978Z,3.60
2019-04-11T06:04:37.537Z,4.10
2019-04-11T06:05:39.087Z,3.90
2019-04-11T06:06:40.256Z,4.00
2019-04-11T06:07:42.500Z,3.80
2019-04-11T06:08:38.489Z,3.80
2019-04-11T06:09:39.847Z,5.20
2019-04-11T06:10:42.659Z,4.00
2019-04-11T06:11:39.096Z,3.70
2019-04-11T06:12:37.953Z,4.30
2019-04-11T06:13:37.441Z,3.60
2019-04-11T06:14:37.581Z,4.00
2019-04-11T06:15:40.827Z,4.10
2019-04-11T06:16:43.599Z,3.60
2019-04-11T06:17:38.556Z,4.30
2019-04-11T06:18:40.808Z,4.10
2019-04-11T06:19:39.499Z,4.00
2019-04-11T06:20:37.987Z,4.20
2019-04-11T06:21:37.355Z,5.80
2019-04-11T06:22:38.091Z,4.30
2019-04-11T06:23:37.328Z,4.70
2019-04-11T06:24:38.438Z,3.80
2019-04-11T06:25:40.268Z,4.10
2019-04-11T06:26:38.685Z,3.50
2019-04-11T06:27:38.979Z,4.20
2019-04-11T06:28:38.075Z,4.20
2019-04-11T06:29:37.266Z,3.60
2019-04-11T06:30:37.259Z,3.90
2019-04-11T06:31:38.152Z,4.10
2019-04-11T06:32:38.305Z,4.20
2019-04-11T06:33:37.476Z,4.50
2019-04-11T06:34:37.602Z,4.00
2019-04-11T06:35:37.851Z,4.30
2019-04-11T06:36:37.182Z,3.70
2019-04-11T06:37:38.117Z,3.90
2019-04-11T06:38:37.217Z,3.90
2019-04-11T06:39:37.806Z,5.10
2019-04-11T06:40:37.232Z,5.30
2019-04-11T06:41:37.139Z,4.10
2019-04-11T06:42:37.301Z,4.30
2019-04-11T06:43:38.329Z,3.50
2019-04-11T06:44:37.683Z,3.90
2019-04-11T06:45:37.729Z,3.80
2019-04-11T06:46:48.590Z,4.20
2019-04-11T06:47:38.084Z,3.50
2019-04-11T06:48:38.099Z,3.80
2019-04-11T06:49:37.037Z,3.60
2019-04-11T06:50:37.609Z,4.10
2019-04-11T06:51:37.797Z,3.50
2019-04-11T06:52:37.039Z,3.80
2019-04-11T06:53:37.094Z,3.40
2019-04-11T06:54:37.183Z,4.00
2019-04-11T06:55:37.125Z,3.70
2019-04-11T06:56:36.993Z,3.60
2019-04-11T06:57:38.217Z,3.50
2019-04-11T06:58:37.330Z,4.10
2019-04-11T06:59:37.018Z,3.90
2019-04-11T07:00:36.988Z,3.40
2019-04-11T07:01:38.355Z,3.20
2019-04-11T07:02:36.974Z,3.20
2019-04-11T07:03:36.924Z,3.10
2019-04-11T07:04:37.766Z,3.40
2019-04-11T07:05:36.964Z,3.40
2019-04-11T07:06:37.760Z,3.30
2019-04-11T07:07:37.814Z,3.40
2019-04-11T07:08:36.834Z,4.20
2019-04-11T07:09:37.499Z,3.70
2019-04-11T07:10:36.809Z,3.60
2019-04-11T07:11:36.804Z,4.30
2019-04-11T07:12:36.790Z,3.50
2019-04-11T07:13:37.164Z,2.90
2019-04-11T07:14:37.556Z,2.80
2019-04-11T07:15:37.679Z,3.10
2019-04-11T07:16:36.745Z,2.60
2019-04-11T07:17:37.505Z,2.50
2019-04-11T07:18:37.827Z,2.60
2019-04-11T07:19:37.282Z,2.50
2019-04-11T07:20:37.871Z,2.60
2019-04-11T07:21:36.692Z,2.10
2019-04-11T07:22:36.903Z,2.30
2019-04-11T07:23:36.667Z,2.90
2019-04-11T07:24:36.836Z,2.70
2019-04-11T07:25:37.428Z,3.60
2019-04-11T07:26:37.602Z,2.80
2019-04-11T07:27:36.713Z,2.70
2019-04-11T07:28:36.614Z,2.80
2019-04-11T07:29:37.832Z,3.00
2019-04-11T07:30:37.451Z,3.10
2019-04-11T07:31:38.018Z,3.10
2019-04-11T07:32:36.661Z,2.40
2019-04-11T07:33:37.290Z,2.20
2019-04-11T07:34:38.776Z,2.40
2019-04-11T07:35:37.935Z,2.30
2019-04-11T07:36:36.529Z,2.40
2019-04-11T07:37:37.206Z,2.80
2019-04-11T07:38:36.687Z,2.70
2019-04-11T07:39:37.906Z,2.60
2019-04-11T07:40:36.600Z,2.50
2019-04-11T07:41:38.760Z,2.20
2019-04-11T07:42:37.366Z,4.30
2019-04-11T07:43:36.534Z,3.60
2019-04-11T07:44:36.433Z,2.70
2019-04-11T07:45:38.788Z,2.80
2019-04-11T07:46:36.414Z,2.60
2019-04-11T07:47:37.258Z,2.70
2019-04-11T07:48:36.402Z,2.40
2019-04-11T07:49:37.225Z,2.40
2019-04-11T07:50:36.499Z,2.60
2019-04-11T07:51:36.602Z,2.50
2019-04-11T07:52:36.357Z,2.10
2019-04-11T07:53:37.292Z,2.40
2019-04-11T07:54:36.942Z,2.30
2019-04-11T07:55:36.576Z,2.30
2019-04-11T07:56:37.568Z,2.10
2019-04-11T07:57:36.292Z,2.10
2019-04-11T07:58:37.327Z,2.90
2019-04-11T07:59:37.541Z,2.60
2019-04-11T08:00:43.468Z,2.80
2019-04-11T08:01:38.244Z,2.30
2019-04-11T08:02:37.602Z,2.70
2019-04-11T08:03:36.230Z,2.40
2019-04-11T08:04:36.494Z,2.80
2019-04-11T08:05:36.680Z,2.90
2019-04-11T08:06:37.059Z,2.60
2019-04-11T08:07:36.191Z,2.40
2019-04-11T08:08:36.797Z,2.30
2019-04-11T08:09:36.182Z,2.60
2019-04-11T08:10:37.212Z,2.80
2019-04-11T08:11:36.144Z,2.90
2019-04-11T08:12:37.252Z,2.80
2019-04-11T08:13:36.804Z,3.10
2019-04-11T08:14:36.953Z,3.30
2019-04-11T08:15:36.173Z,2.60
2019-04-11T08:16:37.089Z,2.20
2019-04-11T08:17:40.436Z,2.50
2019-04-11T08:18:37.067Z,2.70
2019-04-11T08:19:36.086Z,3.00
2019-04-11T08:20:36.064Z,3.00
2019-04-11T08:21:37.178Z,3.30
2019-04-11T08:22:36.077Z,3.50
2019-04-11T08:23:36.105Z,2.70
2019-04-11T08:24:36.578Z,2.90
2019-04-11T08:25:36.051Z,2.80
2019-04-11T08:26:35.990Z,2.60
2019-04-11T08:27:48.428Z,2.60
2019-04-11T08:28:37.355Z,3.00
2019-04-11T08:29:36.082Z,2.70
2019-04-11T08:30:37.034Z,3.00
2019-04-11T08:31:36.213Z,2.70
2019-04-11T08:32:36.116Z,2.90
2019-04-11T08:33:35.914Z,3.30
2019-04-11T08:34:35.889Z,3.00
2019-04-11T08:35:36.588Z,3.00
2019-04-11T08:36:35.867Z,2.70
2019-04-11T08:37:35.919Z,2.50
2019-04-11T08:38:36.390Z,2.50
2019-04-11T08:39:35.834Z,2.70
2019-04-11T08:40:35.835Z,2.90
2019-04-11T08:41:35.930Z,2.50
2019-04-11T08:42:37.352Z,2.40
2019-04-11T08:43:35.792Z,2.30
2019-04-11T08:44:36.536Z,2.20
2019-04-11T08:45:35.780Z,2.00
2019-04-11T08:46:37.155Z,2.10
2019-04-11T08:47:43.856Z,1.90
2019-04-11T08:48:37.230Z,1.70
2019-04-11T08:49:35.736Z,1.60
2019-04-11T08:50:36.658Z,1.90
2019-04-11T08:51:35.777Z,1.80
2019-04-11T08:52:36.142Z,2.00
2019-04-11T08:53:35.705Z,1.90
2019-04-11T08:54:35.664Z,1.90
2019-04-11T08:55:47.649Z,2.10
2019-04-11T08:56:36.855Z,1.90
2019-04-11T08:57:36.102Z,2.30
2019-04-11T08:58:36.396Z,1.80
2019-04-11T08:59:35.954Z,2.10
2019-04-11T09:00:35.613Z,2.10
2019-04-11T09:01:36.022Z,2.50
2019-04-11T09:02:35.582Z,2.20
2019-04-11T09:03:35.705Z,2.00
2019-04-11T09:04:36.547Z,1.90
2019-04-11T09:05:35.583Z,1.90
2019-04-11T09:06:36.887Z,1.60
2019-04-11T09:07:36.005Z,3.10
2019-04-11T09:08:35.524Z,2.90
2019-04-11T09:09:37.695Z,1.90
2019-04-11T09:10:35.886Z,1.50
2019-04-11T09:11:38.632Z,1.70
2019-04-11T09:12:36.400Z,1.30
2019-04-11T09:13:35.635Z,1.60
2019-04-11T09:14:35.986Z,2.10
2019-04-11T09:15:35.463Z,1.80
2019-04-11T09:16:35.426Z,2.00
2019-04-11T09:17:36.552Z,2.10
2019-04-11T09:18:36.474Z,2.10
2019-04-11T09:19:35.406Z,1.50
2019-04-11T09:20:35.944Z,1.70
2019-04-11T09:21:36.218Z,1.80
2019-04-11T09:22:35.434Z,1.60
2019-04-11T09:23:35.695Z,1.70
2019-04-11T09:24:35.357Z,1.50
2019-04-11T09:25:35.349Z,1.40
2019-04-11T09:26:36.077Z,1.20
2019-04-11T09:27:36.469Z,1.50
2019-04-11T09:28:35.677Z,1.30
2019-04-11T09:29:35.283Z,1.10
2019-04-11T09:30:35.293Z,1.00
2019-04-11T09:31:35.863Z,1.10
2019-04-11T09:32:36.185Z,1.00
2019-04-11T09:33:35.289Z,1.40
2019-04-11T09:34:35.659Z,1.20
2019-04-11T09:35:35.367Z,1.40
2019-04-11T09:36:35.212Z,1.20
2019-04-11T09:37:35.999Z,1.30
2019-04-11T09:38:35.192Z,0.90
2019-04-11T09:39:35.189Z,1.10
2019-04-11T09:40:36.208Z,1.40
2019-04-11T09:41:36.528Z,1.50
2019-04-11T09:42:35.141Z,1.10
2019-04-11T09:43:35.884Z,1.60
2019-04-11T09:44:35.122Z,1.50
2019-04-11T09:45:35.396Z,1.80
2019-04-11T09:46:35.111Z,1.50
2019-04-11T09:47:36.229Z,1.70
2019-04-11T09:48:35.092Z,1.20
2019-04-11T09:49:36.101Z,1.80
2019-04-11T09:50:36.364Z,1.60
2019-04-11T09:51:35.998Z,1.60
2019-04-11T09:52:35.093Z,1.40
2019-04-11T09:53:35.021Z,1.30
2019-04-11T09:54:35.175Z,1.00
2019-04-11T09:55:35.006Z,1.20
2019-04-11T09:56:36.255Z,1.80
2019-04-11T09:57:34.977Z,3.10
2019-04-11T09:58:35.742Z,1.60
2019-04-11T09:59:34.957Z,1.80
2019-04-11T10:00:34.954Z,1.50
2019-04-11T10:01:35.172Z,1.40
2019-04-11T10:02:35.326Z,2.10
2019-04-11T10:03:34.911Z,1.50
2019-04-11T10:04:36.051Z,1.90
2019-04-11T10:05:35.147Z,1.80
2019-04-11T10:06:34.876Z,1.20
2019-04-11T10:07:35.564Z,1.30
2019-04-11T10:08:35.164Z,1.40
2019-04-11T10:09:35.746Z,1.30
2019-04-11T10:10:35.285Z,1.80
2019-04-11T10:11:34.825Z,1.30
2019-04-11T10:12:36.033Z,1.10
2019-04-11T10:13:35.589Z,2.20
2019-04-11T10:14:34.811Z,1.80
2019-04-11T10:15:35.569Z,1.40
2019-04-11T10:16:35.834Z,1.30
2019-04-11T10:17:35.932Z,1.20
2019-04-11T10:18:38.720Z,1.60
2019-04-11T10:19:36.063Z,1.90
2019-04-11T10:20:35.027Z,1.60
2019-04-11T10:21:34.720Z,1.40
2019-04-11T10:22:34.715Z,1.50
2019-04-11T10:23:34.694Z,1.80
2019-04-11T10:24:34.735Z,1.60
2019-04-11T10:25:35.166Z,1.50
2019-04-11T10:26:34.730Z,1.30
2019-04-11T10:27:34.653Z,1.60
2019-04-11T10:28:35.541Z,1.90
2019-04-11T10:29:34.693Z,1.20
2019-04-11T10:30:34.677Z,1.30
2019-04-11T10:31:34.759Z,1.30
2019-04-11T10:32:35.063Z,1.30
2019-04-11T10:33:35.178Z,1.20
2019-04-11T10:34:35.412Z,1.40
2019-04-11T10:35:34.608Z,1.10
2019-04-11T10:36:34.944Z,1.50
2019-04-11T10:37:34.549Z,1.50
2019-04-11T10:38:34.576Z,5.30
2019-04-11T10:39:35.575Z,1.00
2019-04-11T10:40:34.528Z,1.00
2019-04-11T10:41:34.555Z,1.10
2019-04-11T10:42:34.971Z,3.80
2019-04-11T10:43:34.493Z,1.40
2019-04-11T10:44:34.480Z,1.20
2019-04-11T10:45:34.491Z,1.70
2019-04-11T10:46:35.428Z,1.40
2019-04-11T10:47:34.489Z,1.20
2019-04-11T10:48:39.448Z,1.00
2019-04-11T10:49:36.516Z,2.00
2019-04-11T10:50:34.411Z,1.50
2019-04-11T10:51:34.434Z,1.70
2019-04-11T10:52:34.381Z,1.10
2019-04-11T10:53:35.376Z,2.00
2019-04-11T10:54:34.364Z,1.90
2019-04-11T10:55:34.369Z,1.40
2019-04-11T10:56:34.760Z,1.30
2019-04-11T10:57:34.406Z,1.30
2019-04-11T10:58:35.155Z,1.00
2019-04-11T10:59:34.530Z,1.30
2019-04-11T11:00:35.505Z,1.10
2019-04-11T11:01:34.283Z,1.00
2019-04-11T11:02:35.730Z,1.00
2019-04-11T11:03:34.261Z,1.00
2019-04-11T11:04:35.063Z,1.00
2019-04-11T11:05:34.634Z,1.10
2019-04-11T11:06:35.845Z,1.00
2019-04-11T11:07:34.983Z,1.00
2019-04-11T11:08:34.339Z,1.20
2019-04-11T11:09:35.485Z,1.00
2019-04-11T11:10:35.451Z,1.80
2019-04-11T11:11:34.537Z,1.90
2019-04-11T11:12:35.144Z,1.60
2019-04-11T11:13:34.207Z,1.20
2019-04-11T11:14:34.533Z,0.90
2019-04-11T11:15:34.192Z,1.10
2019-04-11T11:16:34.293Z,1.20
2019-04-11T11:17:54.566Z,1.20
2019-04-11T11:18:53.807Z,0.90
2019-04-11T11:20:39.927Z,0.90
2019-04-11T11:21:35.622Z,1.10
2019-04-11T11:22:34.609Z,1.00
2019-04-11T11:23:35.173Z,0.90
2019-04-11T11:24:38.240Z,1.30
2019-04-11T11:25:35.133Z,1.60
2019-04-11T11:26:34.026Z,0.80
2019-04-11T11:27:34.763Z,1.00
2019-04-11T11:28:34.343Z,1.00
2019-04-11T11:29:35.014Z,1.20
2019-04-11T11:30:35.287Z,0.80
2019-04-11T11:31:34.129Z,1.00
2019-04-11T11:32:33.945Z,1.10
2019-04-11T11:33:34.131Z,1.30
2019-04-11T11:34:34.729Z,1.20
2019-04-11T11:35:37.277Z,1.20
2019-04-11T11:36:37.730Z,1.10
2019-04-11T11:37:33.882Z,1.30
2019-04-11T11:38:33.866Z,1.50
2019-04-11T11:39:33.863Z,1.00
2019-04-11T11:40:38.550Z,1.00
2019-04-11T11:41:34.838Z,1.30
2019-04-11T11:42:34.478Z,1.20
2019-04-11T11:43:34.950Z,1.30
2019-04-11T11:44:34.938Z,1.30
2019-04-11T11:45:33.851Z,1.40
2019-04-11T11:46:34.529Z,1.10
2019-04-11T11:47:38.029Z,1.10
2019-04-11T11:48:35.680Z,1.10
2019-04-11T11:49:45.796Z,1.00
2019-04-11T11:50:36.040Z,0.90
2019-04-11T11:51:33.719Z,1.30
2019-04-11T11:52:35.045Z,1.20
2019-04-11T11:53:33.727Z,1.50
2019-04-11T11:54:33.692Z,1.20
2019-04-11T11:55:33.737Z,1.30
2019-04-11T11:56:34.051Z,1.20
2019-04-11T11:57:33.665Z,1.70
2019-04-11T11:58:33.652Z,1.40
2019-04-11T11:59:34.458Z,1.50
2019-04-11T12:00:33.618Z,1.70
2019-04-11T12:01:33.668Z,1.90
2019-04-11T12:02:34.776Z,2.00
2019-04-11T12:03:33.596Z,1.80
2019-04-11T12:04:36.108Z,1.70
2019-04-11T12:05:34.754Z,1.70
2019-04-11T12:06:33.551Z,1.70
2019-04-11T12:07:36.687Z,2.10
2019-04-11T12:08:34.947Z,1.80
2019-04-11T12:09:34.249Z,1.60
2019-04-11T12:10:34.068Z,1.50
2019-04-11T12:11:34.444Z,1.50
2019-04-11T12:12:33.677Z,1.80
2019-04-11T12:13:34.578Z,2.00
2019-04-11T12:14:33.467Z,1.90
2019-04-11T12:15:33.464Z,1.60
2019-04-11T12:16:34.633Z,2.10
2019-04-11T12:17:36.986Z,1.80
2019-04-11T12:18:33.426Z,1.70
2019-04-11T12:19:45.750Z,1.60
2019-04-11T12:20:34.809Z,2.30
2019-04-11T12:21:34.560Z,2.10
2019-04-11T12:22:34.732Z,2.00
2019-04-11T12:23:46.447Z,1.70
2019-04-11T12:24:34.550Z,2.00
2019-04-11T12:25:33.476Z,1.60
2019-04-11T12:26:33.865Z,2.20
2019-04-11T12:27:33.349Z,2.10
2019-04-11T12:28:35.908Z,2.40
2019-04-11T12:29:34.332Z,2.40
2019-04-11T12:30:34.419Z,2.30
2019-04-11T12:31:36.423Z,2.10
2019-04-11T12:32:33.274Z,2.20
2019-04-11T12:33:33.267Z,2.50
2019-04-11T12:34:34.463Z,1.80
2019-04-11T12:35:33.245Z,2.50
2019-04-11T12:36:33.307Z,2.30
2019-04-11T12:37:33.674Z,2.10
2019-04-11T12:38:33.251Z,1.80
2019-04-11T12:39:33.191Z,1.90
2019-04-11T12:40:34.044Z,2.30
2019-04-11T12:41:33.239Z,2.00
2019-04-11T12:42:33.233Z,2.00
2019-04-11T12:43:33.153Z,2.10
2019-04-11T12:44:33.200Z,2.40
2019-04-11T12:45:33.134Z,1.90
2019-04-11T12:46:33.238Z,2.20
2019-04-11T12:47:33.109Z,2.00
2019-04-11T12:48:33.104Z,2.40
2019-04-11T12:49:33.102Z,3.10
2019-04-11T12:50:33.079Z,2.70
2019-04-11T12:51:34.384Z,2.40
2019-04-11T12:52:33.096Z,2.40
2019-04-11T12:53:33.034Z,2.10
2019-04-11T12:54:33.078Z,2.50
2019-04-11T12:55:33.020Z,2.50
2019-04-11T12:56:33.005Z,4.60
2019-04-11T12:57:33.011Z,2.30
2019-04-11T12:58:33.047Z,3.40
2019-04-11T12:59:32.973Z,2.20
2019-04-11T13:00:32.961Z,2.30
2019-04-11T13:01:32.953Z,2.10
2019-04-11T13:02:32.971Z,2.10
2019-04-11T13:03:32.934Z,1.70
2019-04-11T13:04:32.980Z,2.10
2019-04-11T13:05:32.974Z,1.80
2019-04-11T13:06:35.540Z,1.50
2019-04-11T13:07:33.009Z,1.50
2019-04-11T13:08:32.874Z,1.50
2019-04-11T13:09:32.865Z,1.80
2019-04-11T13:10:32.914Z,1.50
2019-04-11T13:11:32.838Z,1.80
2019-04-11T13:12:32.830Z,1.60
2019-04-11T13:13:32.825Z,1.20
2019-04-11T13:14:32.807Z,1.50
2019-04-11T13:15:32.855Z,1.20
2019-04-11T13:16:32.781Z,1.30
2019-04-11T13:17:32.775Z,1.90
2019-04-11T13:18:32.760Z,1.60
2019-04-11T13:19:32.760Z,1.60
2019-04-11T13:20:32.775Z,1.60
2019-04-11T13:21:33.580Z,1.40
2019-04-11T13:22:32.720Z,2.30
2019-04-11T13:23:32.702Z,2.40